createdAt,value
2022-08-26T00:01:01.913Z,21.38
2022-08-26T00:02:03.781Z,21.31
2022-08-26T00:03:05.712Z,21.24
2022-08-26T00:04:10.136Z,21.19
2022-08-26T00:05:11.858Z,21.13
2022-08-26T00:06:13.819Z,21.11
2022-08-26T00:07:15.418Z,21.08
2022-08-26T00:08:18.646Z,21.02
2022-08-26T00:09:20.887Z,20.96
2022-08-26T00:10:22.952Z,20.89
2022-08-26T00:11:28.017Z,20.89
2022-08-26T00:12:36.021Z,20.87
2022-08-26T00:13:39.921Z,20.88
2022-08-26T00:14:48.487Z,20.85
2022-08-26T00:15:51.208Z,20.84
2022-08-26T00:16:52.783Z,20.81
2022-08-26T00:17:56.878Z,20.80
2022-08-26T00:18:58.572Z,20.77
2022-08-26T00:20:00.325Z,20.73
2022-08-26T00:21:06.226Z,20.71
2022-08-26T00:22:08.301Z,20.74
2022-08-26T00:23:09.971Z,20.77
2022-08-26T00:24:11.973Z,20.78
2022-08-26T00:25:14.918Z,20.81
2022-08-26T00:26:18.734Z,20.83
2022-08-26T00:27:22.694Z,20.83
2022-08-26T00:28:24.765Z,20.81
2022-08-26T00:29:26.522Z,20.78
2022-08-26T00:30:30.975Z,20.85
2022-08-26T00:31:33.170Z,20.87
2022-08-26T00:32:35.712Z,20.88
2022-08-26T00:33:39.932Z,20.87
2022-08-26T00:34:41.764Z,20.93
2022-08-26T00:35:45.244Z,20.93
2022-08-26T00:36:47.828Z,20.91
2022-08-26T00:37:54.217Z,20.88
2022-08-26T00:38:56.388Z,20.85
2022-08-26T00:39:58.395Z,20.81
2022-08-26T00:41:02.649Z,20.79
2022-08-26T00:42:04.564Z,20.80
2022-08-26T00:43:08.529Z,20.78
2022-08-26T00:44:11.369Z,20.76
2022-08-26T00:45:14.054Z,20.75
2022-08-26T00:46:26.866Z,20.74
2022-08-26T00:47:35.302Z,20.68
2022-08-26T00:48:42.420Z,20.60
2022-08-26T00:49:47.397Z,20.58
2022-08-26T00:51:01.938Z,20.58
2022-08-26T00:52:07.037Z,20.55
2022-08-26T00:53:24.122Z,20.55
2022-08-26T00:54:32.691Z,20.50
2022-08-26T00:55:39.120Z,20.54
2022-08-26T00:56:49.775Z,20.58
2022-08-26T00:57:53.481Z,20.57
2022-08-26T00:58:58.175Z,20.52
2022-08-26T01:00:03.419Z,20.61
2022-08-26T01:01:05.777Z,20.64
2022-08-26T01:02:07.347Z,20.65
2022-08-26T01:03:25.218Z,20.63
2022-08-26T01:04:27.440Z,20.64
2022-08-26T01:05:30.161Z,20.64
2022-08-26T01:06:32.353Z,20.62
2022-08-26T01:07:34.911Z,20.64
2022-08-26T01:08:36.702Z,20.62
2022-08-26T01:09:38.680Z,20.60
2022-08-26T01:10:42.127Z,20.64
2022-08-26T01:11:47.458Z,20.70
2022-08-26T01:12:55.687Z,20.71
2022-08-26T01:14:02.065Z,20.70
2022-08-26T01:15:05.893Z,20.75
2022-08-26T01:16:12.840Z,20.74
2022-08-26T01:17:15.219Z,20.76
2022-08-26T01:18:18.357Z,20.75
2022-08-26T01:19:32.994Z,20.76
2022-08-26T01:21:16.329Z,20.73
2022-08-26T01:22:28.131Z,20.74
2022-08-26T01:23:40.946Z,20.78
2022-08-26T01:24:48.101Z,20.81
2022-08-26T01:25:56.520Z,20.89
2022-08-26T01:27:01.654Z,21.02
2022-08-26T01:28:08.195Z,21.11
2022-08-26T01:29:15.032Z,21.16
2022-08-26T01:30:17.030Z,21.13
2022-08-26T01:31:22.423Z,21.28
2022-08-26T01:32:25.707Z,21.36
2022-08-26T01:33:42.173Z,21.47
2022-08-26T01:34:47.270Z,21.50
2022-08-26T01:35:49.375Z,21.59
2022-08-26T01:36:57.734Z,21.64
2022-08-26T01:38:00.643Z,21.65
2022-08-26T01:39:05.886Z,21.70
2022-08-26T01:40:14.025Z,21.76
2022-08-26T01:41:19.866Z,21.87
2022-08-26T01:42:29.384Z,21.88
2022-08-26T01:43:32.849Z,21.91
2022-08-26T01:44:39.919Z,21.92
2022-08-26T01:45:42.800Z,21.88
2022-08-26T01:46:46.703Z,21.85
2022-08-26T01:47:56.748Z,21.83
2022-08-26T01:49:02.675Z,21.78
2022-08-26T01:50:10.499Z,21.74
2022-08-26T01:51:17.420Z,21.78
2022-08-26T01:52:24.280Z,21.81
2022-08-26T01:53:30.335Z,21.74
2022-08-26T01:54:32.536Z,21.84
2022-08-26T01:55:37.061Z,21.82
2022-08-26T01:56:39.306Z,21.59
2022-08-26T01:57:44.242Z,21.85
2022-08-26T01:58:51.435Z,21.86
2022-08-26T01:59:57.076Z,21.83
2022-08-26T02:00:59.055Z,21.72
2022-08-26T02:02:01.571Z,21.74
2022-08-26T02:03:17.567Z,21.71
2022-08-26T02:04:26.592Z,21.66
2022-08-26T02:05:28.322Z,21.66
2022-08-26T02:06:31.003Z,21.63
2022-08-26T02:07:33.321Z,21.62
2022-08-26T02:08:41.128Z,21.61
2022-08-26T02:09:43.349Z,21.56
2022-08-26T02:10:45.088Z,21.56
2022-08-26T02:11:47.450Z,21.55
2022-08-26T02:12:50.165Z,21.52
2022-08-26T02:13:59.675Z,21.50
2022-08-26T02:15:05.748Z,21.52
2022-08-26T02:16:08.969Z,21.49
2022-08-26T02:17:11.125Z,21.46
2022-08-26T02:18:14.183Z,21.50
2022-08-26T02:19:23.495Z,21.27
2022-08-26T02:20:26.568Z,21.47
2022-08-26T02:21:29.932Z,21.40
2022-08-26T02:22:33.048Z,21.40
2022-08-26T02:23:34.696Z,21.38
2022-08-26T02:25:28.552Z,21.32
2022-08-26T02:26:30.140Z,21.37
2022-08-26T02:27:34.069Z,21.34
2022-08-26T02:29:01.990Z,21.37
2022-08-26T02:30:21.262Z,21.39
2022-08-26T02:31:23.787Z,21.35
2022-08-26T02:32:25.882Z,21.33
2022-08-26T02:33:29.637Z,21.29
2022-08-26T02:34:33.231Z,21.24
2022-08-26T02:35:36.450Z,21.20
2022-08-26T02:36:38.584Z,21.15
2022-08-26T02:37:41.906Z,21.11
2022-08-26T02:38:43.564Z,21.07
2022-08-26T02:39:48.073Z,20.83
2022-08-26T02:40:49.815Z,21.04
2022-08-26T02:41:52.684Z,20.99
2022-08-26T02:42:55.959Z,21.02
2022-08-26T02:43:59.088Z,21.02
2022-08-26T02:45:00.777Z,21.02
2022-08-26T02:46:02.688Z,20.99
2022-08-26T02:47:05.220Z,20.97
2022-08-26T02:48:18.802Z,20.89
2022-08-26T02:49:21.807Z,20.84
2022-08-26T02:50:24.171Z,20.84
2022-08-26T02:51:27.262Z,20.83
2022-08-26T02:52:29.054Z,20.80
2022-08-26T02:53:32.054Z,20.77
2022-08-26T02:54:37.228Z,20.79
2022-08-26T02:55:40.369Z,20.65
2022-08-26T02:56:45.513Z,20.69
2022-08-26T02:57:47.186Z,20.67
2022-08-26T02:58:48.832Z,20.66
2022-08-26T02:59:53.590Z,20.63
2022-08-26T03:00:55.426Z,20.62
2022-08-26T03:01:57.304Z,20.61
2022-08-26T03:02:59.426Z,20.62
2022-08-26T03:04:03.251Z,20.59
2022-08-26T03:05:05.412Z,20.52
2022-08-26T03:06:07.074Z,20.56
2022-08-26T03:07:10.194Z,20.53
2022-08-26T03:08:11.878Z,20.48
2022-08-26T03:09:18.507Z,20.46
2022-08-26T03:10:21.120Z,20.42
2022-08-26T03:11:23.631Z,20.38
2022-08-26T03:12:26.251Z,20.31
2022-08-26T03:13:27.896Z,20.37
2022-08-26T03:14:29.800Z,20.38
2022-08-26T03:15:32.217Z,20.34
2022-08-26T03:16:35.828Z,20.31
2022-08-26T03:17:38.108Z,20.30
2022-08-26T03:18:41.723Z,20.29
2022-08-26T03:19:43.359Z,20.27
2022-08-26T03:20:46.448Z,20.22
2022-08-26T03:21:48.426Z,20.23
2022-08-26T03:22:53.236Z,20.24
2022-08-26T03:23:58.899Z,20.26
2022-08-26T03:25:03.729Z,20.19
2022-08-26T03:26:06.536Z,20.21
2022-08-26T03:27:08.342Z,20.19
2022-08-26T03:28:10.076Z,20.20
2022-08-26T03:29:30.304Z,20.20
2022-08-26T03:30:45.390Z,20.16
2022-08-26T03:31:47.461Z,20.14
2022-08-26T03:32:49.340Z,20.12
2022-08-26T03:33:51.513Z,20.11
2022-08-26T03:34:53.955Z,20.08
2022-08-26T03:35:55.696Z,20.04
2022-08-26T03:36:58.994Z,20.05
2022-08-26T03:38:01.960Z,20.05
2022-08-26T03:39:03.641Z,20.02
2022-08-26T03:40:08.985Z,20.01
2022-08-26T03:41:13.562Z,20.02
2022-08-26T03:42:15.857Z,20.02
2022-08-26T03:43:17.950Z,20.07
2022-08-26T03:44:19.704Z,20.06
2022-08-26T03:45:21.877Z,19.99
2022-08-26T03:46:23.523Z,20.06
2022-08-26T03:47:28.446Z,20.01
2022-08-26T03:48:29.976Z,19.98
2022-08-26T03:49:32.014Z,19.97
2022-08-26T03:50:35.802Z,19.97
2022-08-26T03:51:38.834Z,19.98
2022-08-26T03:52:44.101Z,19.95
2022-08-26T03:53:47.644Z,19.93
2022-08-26T03:54:50.102Z,19.90
2022-08-26T03:55:52.077Z,19.86
2022-08-26T03:56:54.049Z,19.81
2022-08-26T03:57:55.810Z,19.74
2022-08-26T03:58:57.448Z,19.72
2022-08-26T04:00:00.207Z,19.66
2022-08-26T04:01:01.817Z,19.65
2022-08-26T04:02:03.740Z,19.58
2022-08-26T04:03:33.115Z,19.56
2022-08-26T04:04:35.399Z,19.48
2022-08-26T04:05:37.928Z,19.52
2022-08-26T04:06:45.014Z,19.51
2022-08-26T04:07:47.743Z,19.52
2022-08-26T04:08:50.698Z,19.56
2022-08-26T04:09:56.994Z,19.57
2022-08-26T04:10:59.059Z,19.61
2022-08-26T04:12:00.792Z,19.70
2022-08-26T04:13:02.466Z,19.71
2022-08-26T04:14:07.221Z,19.70
2022-08-26T04:15:12.929Z,19.68
2022-08-26T04:16:17.398Z,19.60
2022-08-26T04:17:19.872Z,19.68
2022-08-26T04:18:31.428Z,19.68
2022-08-26T04:19:38.606Z,19.67
2022-08-26T04:20:40.134Z,19.68
2022-08-26T04:21:41.954Z,19.65
2022-08-26T04:22:45.249Z,19.60
2022-08-26T04:23:47.542Z,19.55
2022-08-26T04:24:49.535Z,19.44
2022-08-26T04:25:51.540Z,19.44
2022-08-26T04:26:54.011Z,19.36
2022-08-26T04:27:55.711Z,19.30
2022-08-26T04:28:57.246Z,19.25
2022-08-26T04:30:01.338Z,19.13
2022-08-26T04:31:03.254Z,19.15
2022-08-26T04:32:04.900Z,19.10
2022-08-26T04:33:13.025Z,19.06
2022-08-26T04:34:16.232Z,19.02
2022-08-26T04:35:19.439Z,19.00
2022-08-26T04:36:24.418Z,19.00
2022-08-26T04:37:26.213Z,18.97
2022-08-26T04:38:29.199Z,18.95
2022-08-26T04:39:31.261Z,18.95
2022-08-26T04:40:33.468Z,18.91
2022-08-26T04:41:36.728Z,18.93
2022-08-26T04:42:38.371Z,18.94
2022-08-26T04:43:40.047Z,18.96
2022-08-26T04:44:41.647Z,18.99
2022-08-26T04:45:43.970Z,18.99
2022-08-26T04:46:45.819Z,18.98
2022-08-26T04:47:47.525Z,19.00
2022-08-26T04:48:53.324Z,19.00
2022-08-26T04:49:55.946Z,19.04
2022-08-26T04:51:00.182Z,19.03
2022-08-26T04:52:01.882Z,19.04
2022-08-26T04:53:04.575Z,19.06
2022-08-26T04:54:09.101Z,19.09
2022-08-26T04:55:10.754Z,19.11
2022-08-26T04:56:13.481Z,19.10
2022-08-26T04:57:15.400Z,19.10
2022-08-26T04:58:19.644Z,19.10
2022-08-26T04:59:21.298Z,19.09
2022-08-26T05:00:23.602Z,19.06
2022-08-26T05:01:29.866Z,19.05
2022-08-26T05:02:31.548Z,19.03
2022-08-26T05:03:36.169Z,19.01
2022-08-26T05:04:37.844Z,19.01
2022-08-26T05:05:44.153Z,19.01
2022-08-26T05:06:46.697Z,18.99
2022-08-26T05:07:48.263Z,19.00
2022-08-26T05:08:51.932Z,19.00
2022-08-26T05:09:54.653Z,19.00
2022-08-26T05:10:56.632Z,18.90
2022-08-26T05:11:58.327Z,19.00
2022-08-26T05:13:00.287Z,19.02
2022-08-26T05:14:02.520Z,19.00
2022-08-26T05:15:04.594Z,19.00
2022-08-26T05:16:11.635Z,19.00
2022-08-26T05:17:14.965Z,19.00
2022-08-26T05:18:20.709Z,19.05
2022-08-26T05:19:23.626Z,19.11
2022-08-26T05:20:26.061Z,19.14
2022-08-26T05:21:29.057Z,19.15
2022-08-26T05:22:30.757Z,19.17
2022-08-26T05:23:35.090Z,19.21
2022-08-26T05:24:37.241Z,19.27
2022-08-26T05:25:42.028Z,19.35
2022-08-26T05:26:44.644Z,19.38
2022-08-26T05:27:46.908Z,19.39
2022-08-26T05:28:49.203Z,19.45
2022-08-26T05:29:54.417Z,19.53
2022-08-26T05:30:57.166Z,19.60
2022-08-26T05:31:58.843Z,19.67
2022-08-26T05:33:01.552Z,19.71
2022-08-26T05:34:04.639Z,19.49
2022-08-26T05:35:08.863Z,19.77
2022-08-26T05:36:15.110Z,19.77
2022-08-26T05:37:16.965Z,19.79
2022-08-26T05:38:21.063Z,19.86
2022-08-26T05:39:23.433Z,19.89
2022-08-26T05:40:25.449Z,19.92
2022-08-26T05:41:36.489Z,19.93
2022-08-26T05:42:40.276Z,19.93
2022-08-26T05:43:42.118Z,19.97
2022-08-26T05:44:55.481Z,20.01
2022-08-26T05:46:06.984Z,20.05
2022-08-26T05:47:08.618Z,20.15
2022-08-26T05:48:10.428Z,20.20
2022-08-26T05:49:14.756Z,20.26
2022-08-26T05:50:21.871Z,20.31
2022-08-26T05:51:26.301Z,20.36
2022-08-26T05:52:27.967Z,20.40
2022-08-26T05:53:29.650Z,20.47
2022-08-26T05:54:32.467Z,20.54
2022-08-26T05:55:34.978Z,20.59
2022-08-26T05:56:37.196Z,20.64
2022-08-26T05:57:42.866Z,20.71
2022-08-26T05:58:44.659Z,20.75
2022-08-26T05:59:47.928Z,20.85
2022-08-26T06:01:02.324Z,20.89
2022-08-26T06:02:05.889Z,20.96
2022-08-26T06:03:08.344Z,21.02
2022-08-26T06:04:10.919Z,21.10
2022-08-26T06:05:12.716Z,21.19
2022-08-26T06:06:27.285Z,21.34
2022-08-26T06:07:49.634Z,21.44
2022-08-26T06:08:52.594Z,21.56
2022-08-26T06:10:01.628Z,21.69
2022-08-26T06:11:18.658Z,21.80
2022-08-26T06:12:23.248Z,21.86
2022-08-26T06:13:26.842Z,21.97
2022-08-26T06:14:28.602Z,21.84
2022-08-26T06:15:30.480Z,21.90
2022-08-26T06:16:35.054Z,22.18
2022-08-26T06:17:36.826Z,22.31
2022-08-26T06:18:40.899Z,22.41
2022-08-26T06:19:42.488Z,22.50
2022-08-26T06:20:54.614Z,22.62
2022-08-26T06:22:22.304Z,22.78
2022-08-26T06:23:46.339Z,22.93
2022-08-26T06:25:06.516Z,23.07
2022-08-26T06:26:11.063Z,23.31
2022-08-26T06:27:14.008Z,23.56
2022-08-26T06:28:17.359Z,23.83
2022-08-26T06:29:24.321Z,23.97
2022-08-26T06:30:26.573Z,24.18
2022-08-26T06:31:28.769Z,24.47
2022-08-26T06:32:30.799Z,24.56
2022-08-26T06:33:32.528Z,24.72
2022-08-26T06:34:36.839Z,24.99
2022-08-26T06:35:40.501Z,25.07
2022-08-26T06:36:44.804Z,25.14
2022-08-26T06:37:48.255Z,25.18
2022-08-26T06:38:51.146Z,25.06
2022-08-26T06:39:52.780Z,25.11
2022-08-26T06:40:54.967Z,25.13
2022-08-26T06:41:56.902Z,25.16
2022-08-26T06:42:58.559Z,25.06
2022-08-26T06:44:01.356Z,25.37
2022-08-26T06:45:03.641Z,25.84
2022-08-26T06:46:12.398Z,26.24
2022-08-26T06:47:14.208Z,27.05
2022-08-26T06:48:20.249Z,27.75
2022-08-26T06:49:25.815Z,28.35
2022-08-26T06:50:29.498Z,28.93
2022-08-26T06:51:34.579Z,29.40
2022-08-26T06:52:36.364Z,29.72
2022-08-26T06:53:38.948Z,29.75
2022-08-26T06:54:43.217Z,30.13
2022-08-26T06:55:46.845Z,30.24
2022-08-26T06:56:53.680Z,30.70
2022-08-26T06:57:56.574Z,30.98
2022-08-26T06:58:58.163Z,31.06
2022-08-26T06:59:59.757Z,30.78
2022-08-26T07:01:09.079Z,30.51
2022-08-26T07:02:13.773Z,30.96
2022-08-26T07:03:15.587Z,31.46
2022-08-26T07:04:20.291Z,31.74
2022-08-26T07:05:25.613Z,31.72
2022-08-26T07:06:28.344Z,31.86
2022-08-26T07:07:29.991Z,31.68
2022-08-26T07:08:31.663Z,31.60
2022-08-26T07:09:35.319Z,31.44
2022-08-26T07:10:38.703Z,31.09
2022-08-26T07:11:40.648Z,31.18
2022-08-26T07:12:43.256Z,30.89
2022-08-26T07:13:50.505Z,30.65
2022-08-26T07:14:53.513Z,30.33
2022-08-26T07:15:58.018Z,30.41
2022-08-26T07:17:09.209Z,30.50
2022-08-26T07:18:13.895Z,30.71
2022-08-26T07:19:17.503Z,31.48
2022-08-26T07:20:30.357Z,32.11
2022-08-26T07:21:32.015Z,32.48
2022-08-26T07:22:34.449Z,32.59
2022-08-26T07:23:37.034Z,33.06
2022-08-26T07:24:42.535Z,33.32
2022-08-26T07:25:44.477Z,33.46
2022-08-26T07:26:46.018Z,33.78
2022-08-26T07:27:54.253Z,33.47
2022-08-26T07:28:57.966Z,33.54
2022-08-26T07:30:02.045Z,34.19
2022-08-26T07:31:06.161Z,34.42
2022-08-26T07:32:13.868Z,34.63
2022-08-26T07:33:16.765Z,34.11
2022-08-26T07:34:18.687Z,34.33
2022-08-26T07:35:20.357Z,34.72
2022-08-26T07:36:23.228Z,34.31
2022-08-26T07:37:24.953Z,34.02
2022-08-26T07:38:26.832Z,34.18
2022-08-26T07:39:31.879Z,34.09
2022-08-26T07:40:34.478Z,34.79
2022-08-26T07:41:36.638Z,35.36
2022-08-26T07:42:38.246Z,35.42
2022-08-26T07:43:40.410Z,35.32
2022-08-26T07:44:45.262Z,35.67
2022-08-26T07:45:47.271Z,35.66
2022-08-26T07:46:53.211Z,35.79
2022-08-26T07:47:55.845Z,35.49
2022-08-26T07:48:58.541Z,35.21
2022-08-26T07:50:00.202Z,35.26
2022-08-26T07:51:02.396Z,35.33
2022-08-26T07:52:04.943Z,34.77
2022-08-26T07:53:06.666Z,35.03
2022-08-26T07:54:12.253Z,34.40
2022-08-26T07:55:15.195Z,34.19
2022-08-26T07:56:17.036Z,33.87
2022-08-26T07:57:19.142Z,33.90
2022-08-26T07:58:21.104Z,34.18
2022-08-26T07:59:23.336Z,34.14
2022-08-26T08:00:25.589Z,34.50
2022-08-26T08:01:29.642Z,34.66
2022-08-26T08:02:32.907Z,34.24
2022-08-26T08:03:36.463Z,33.65
2022-08-26T08:04:38.107Z,33.60
2022-08-26T08:05:41.274Z,34.02
2022-08-26T08:06:44.674Z,34.43
2022-08-26T08:07:46.549Z,34.23
2022-08-26T08:08:48.275Z,34.11
2022-08-26T08:09:52.549Z,33.72
2022-08-26T08:10:54.291Z,33.85
2022-08-26T08:11:55.900Z,33.86
2022-08-26T08:12:58.380Z,34.65
2022-08-26T08:14:02.841Z,34.71
2022-08-26T08:15:13.900Z,34.37
2022-08-26T08:16:15.710Z,34.37
2022-08-26T08:17:17.314Z,34.14
2022-08-26T08:18:20.952Z,34.03
2022-08-26T08:19:23.948Z,34.03
2022-08-26T08:20:35.081Z,33.64
2022-08-26T08:21:38.615Z,33.51
2022-08-26T08:22:40.896Z,33.74
2022-08-26T08:23:42.451Z,33.80
2022-08-26T08:24:44.012Z,33.85
2022-08-26T08:25:45.673Z,34.13
2022-08-26T08:26:47.601Z,34.82
2022-08-26T08:27:49.215Z,35.26
2022-08-26T08:28:54.980Z,35.43
2022-08-26T08:29:56.812Z,35.31
2022-08-26T08:30:58.535Z,34.78
2022-08-26T08:32:01.141Z,34.55
2022-08-26T08:33:04.549Z,35.35
2022-08-26T08:34:07.323Z,35.29
2022-08-26T08:35:11.723Z,35.16
2022-08-26T08:36:18.428Z,35.11
2022-08-26T08:37:23.442Z,34.73
2022-08-26T08:38:25.919Z,34.28
2022-08-26T08:39:27.986Z,33.76
2022-08-26T08:40:29.559Z,33.11
2022-08-26T08:41:43.575Z,32.20
2022-08-26T08:42:48.414Z,31.55
2022-08-26T08:43:51.808Z,31.40
2022-08-26T08:44:57.320Z,31.31
2022-08-26T08:46:05.854Z,31.09
2022-08-26T08:47:30.603Z,31.12
2022-08-26T08:48:37.882Z,31.86
2022-08-26T08:49:40.270Z,31.92
2022-08-26T08:50:52.167Z,31.90
2022-08-26T08:52:00.329Z,32.11
2022-08-26T08:53:11.156Z,32.78
2022-08-26T08:54:13.019Z,33.50
2022-08-26T08:55:18.201Z,34.04
2022-08-26T08:56:32.310Z,33.92
2022-08-26T08:57:53.872Z,33.73
2022-08-26T08:59:25.276Z,34.09
2022-08-26T09:00:30.770Z,34.40
2022-08-26T09:01:52.567Z,34.74
2022-08-26T09:03:10.846Z,34.92
2022-08-26T09:04:28.929Z,34.90
2022-08-26T09:05:40.234Z,34.91
2022-08-26T09:06:42.863Z,34.97
2022-08-26T09:08:04.937Z,35.13
2022-08-26T09:09:14.195Z,36.24
2022-08-26T09:10:36.428Z,36.37
2022-08-26T09:11:38.776Z,37.24
2022-08-26T09:12:40.405Z,36.78
2022-08-26T09:13:49.223Z,36.76
2022-08-26T09:14:51.985Z,36.75
2022-08-26T09:16:07.420Z,36.79
2022-08-26T09:17:28.488Z,36.67
2022-08-26T09:18:34.141Z,36.84
2022-08-26T09:19:49.480Z,36.67
2022-08-26T09:21:11.612Z,36.40
2022-08-26T09:22:29.039Z,35.92
2022-08-26T09:23:34.024Z,35.23
2022-08-26T09:24:41.622Z,34.80
2022-08-26T09:25:49.079Z,34.81
2022-08-26T09:26:52.696Z,34.99
2022-08-26T09:27:54.542Z,35.15
2022-08-26T09:29:02.883Z,35.27
2022-08-26T09:30:06.397Z,35.46
2022-08-26T09:31:21.547Z,35.95
2022-08-26T09:32:26.506Z,36.03
2022-08-26T09:33:31.362Z,36.32
2022-08-26T09:34:33.188Z,36.56
2022-08-26T09:35:48.830Z,36.35
2022-08-26T09:36:51.720Z,36.41
2022-08-26T09:37:53.415Z,36.49
2022-08-26T09:38:56.181Z,36.58
2022-08-26T09:40:13.612Z,36.74
2022-08-26T09:41:35.497Z,36.48
2022-08-26T09:42:37.100Z,35.50
2022-08-26T09:43:38.893Z,34.63
2022-08-26T09:44:58.316Z,33.77
2022-08-26T09:46:19.401Z,32.81
2022-08-26T09:47:26.497Z,32.20
2022-08-26T09:48:36.612Z,31.47
2022-08-26T09:49:40.355Z,31.36
2022-08-26T09:50:56.098Z,31.07
2022-08-26T09:52:15.556Z,30.93
2022-08-26T09:53:33.248Z,30.63
2022-08-26T09:54:35.680Z,30.38
2022-08-26T09:55:39.620Z,30.20
2022-08-26T09:56:41.249Z,29.99
2022-08-26T09:57:51.200Z,29.86
2022-08-26T09:58:54.889Z,29.56
2022-08-26T09:59:56.535Z,29.89
2022-08-26T10:01:01.511Z,29.86
2022-08-26T10:02:34.240Z,29.71
2022-08-26T10:03:38.986Z,29.79
2022-08-26T10:04:40.762Z,29.90
2022-08-26T10:05:44.175Z,29.82
2022-08-26T10:07:01.126Z,29.75
2022-08-26T10:08:19.939Z,29.78
2022-08-26T10:09:26.369Z,29.78
2022-08-26T10:10:38.687Z,29.85
2022-08-26T10:11:50.845Z,29.81
2022-08-26T10:13:07.839Z,29.85
2022-08-26T10:14:31.787Z,29.89
2022-08-26T10:15:50.635Z,29.84
2022-08-26T10:17:03.365Z,29.87
2022-08-26T10:18:20.265Z,29.79
2022-08-26T10:19:29.260Z,29.77
2022-08-26T10:20:57.048Z,29.76
2022-08-26T10:22:05.887Z,29.71
2022-08-26T10:23:09.441Z,29.70
2022-08-26T10:24:20.820Z,29.76
2022-08-26T10:25:29.040Z,29.92
2022-08-26T10:26:37.744Z,30.01
2022-08-26T10:27:52.766Z,30.00
2022-08-26T10:29:10.204Z,30.13
2022-08-26T10:30:24.472Z,30.18
2022-08-26T10:31:27.499Z,30.24
2022-08-26T10:32:41.809Z,30.42
2022-08-26T10:33:43.501Z,30.45
2022-08-26T10:34:45.604Z,30.33
2022-08-26T10:36:07.654Z,30.77
2022-08-26T10:37:21.448Z,30.85
2022-08-26T10:38:32.444Z,31.05
2022-08-26T10:39:53.061Z,31.27
2022-08-26T10:41:02.851Z,31.29
2022-08-26T10:42:28.898Z,31.27
2022-08-26T10:43:45.044Z,31.37
2022-08-26T10:44:50.222Z,31.26
2022-08-26T10:46:03.155Z,31.61
2022-08-26T10:47:59.218Z,32.11
2022-08-26T10:49:10.602Z,32.12
2022-08-26T10:50:12.811Z,31.56
2022-08-26T10:51:25.673Z,31.65
2022-08-26T10:52:46.756Z,31.82
2022-08-26T10:54:01.730Z,32.01
2022-08-26T10:55:27.364Z,32.45
2022-08-26T10:57:10.580Z,32.46
2022-08-26T10:58:49.492Z,31.57
2022-08-26T11:00:00.951Z,31.38
2022-08-26T11:01:40.845Z,31.41
2022-08-26T11:02:48.253Z,31.28
2022-08-26T11:04:05.283Z,31.25
2022-08-26T11:05:16.812Z,31.13
2022-08-26T11:06:18.745Z,31.03
2022-08-26T11:07:33.534Z,30.59
2022-08-26T11:08:45.035Z,30.74
2022-08-26T11:09:47.802Z,30.74
2022-08-26T11:11:00.410Z,30.52
2022-08-26T11:12:09.922Z,30.93
2022-08-26T11:13:12.117Z,31.20
2022-08-26T11:14:29.299Z,31.52
2022-08-26T11:15:31.756Z,31.55
2022-08-26T11:16:43.555Z,31.11
2022-08-26T11:17:45.829Z,31.50
2022-08-26T11:18:48.726Z,32.05
2022-08-26T11:20:01.558Z,32.80
2022-08-26T11:21:44.035Z,33.86
2022-08-26T11:22:47.942Z,34.22
2022-08-26T11:23:50.454Z,34.50
2022-08-26T11:24:52.438Z,35.07
2022-08-26T11:26:09.514Z,35.96
2022-08-26T11:27:35.145Z,35.71
2022-08-26T11:28:45.793Z,35.78
2022-08-26T11:30:03.977Z,34.85
2022-08-26T11:31:10.678Z,34.23
2022-08-26T11:32:48.777Z,33.39
2022-08-26T11:33:59.481Z,32.77
2022-08-26T11:35:05.987Z,32.19
2022-08-26T11:36:12.495Z,32.01
2022-08-26T11:37:17.902Z,31.79
2022-08-26T11:38:29.489Z,31.83
2022-08-26T11:39:54.037Z,31.41
2022-08-26T11:41:21.953Z,30.79
2022-08-26T11:42:36.838Z,30.77
2022-08-26T11:43:40.663Z,30.76
2022-08-26T11:44:49.312Z,30.83
2022-08-26T11:46:00.174Z,30.76
2022-08-26T11:47:03.115Z,30.70
2022-08-26T11:48:38.555Z,30.78
2022-08-26T11:49:41.832Z,30.74
2022-08-26T11:50:54.175Z,30.46
2022-08-26T11:52:20.869Z,30.36
2022-08-26T11:53:23.659Z,30.28
2022-08-26T11:54:30.794Z,30.26
2022-08-26T11:55:43.346Z,30.26
2022-08-26T11:56:48.711Z,30.25
2022-08-26T11:57:55.206Z,30.15
2022-08-26T11:58:59.864Z,30.05
2022-08-26T12:00:02.928Z,29.91
2022-08-26T12:01:09.621Z,29.59
2022-08-26T12:02:16.017Z,30.05
2022-08-26T12:03:23.587Z,30.02
2022-08-26T12:04:30.196Z,30.01
2022-08-26T12:05:42.360Z,30.24
2022-08-26T12:06:51.557Z,30.16
2022-08-26T12:07:55.398Z,30.33
2022-08-26T12:08:59.989Z,30.49
2022-08-26T12:10:05.208Z,30.50
2022-08-26T12:11:12.020Z,30.88
2022-08-26T12:12:17.080Z,31.22
2022-08-26T12:13:26.345Z,31.42
2022-08-26T12:14:28.595Z,31.44
2022-08-26T12:15:32.191Z,31.66
2022-08-26T12:16:40.239Z,31.77
2022-08-26T12:17:43.237Z,31.95
2022-08-26T12:18:45.043Z,32.18
2022-08-26T12:19:47.635Z,32.26
2022-08-26T12:20:53.832Z,32.14
2022-08-26T12:22:07.342Z,32.08
2022-08-26T12:23:09.181Z,32.23
2022-08-26T12:24:17.108Z,32.22
2022-08-26T12:25:23.783Z,32.35
2022-08-26T12:26:34.903Z,32.40
2022-08-26T12:27:45.364Z,32.09
2022-08-26T12:28:59.908Z,32.05
2022-08-26T12:30:12.499Z,32.00
2022-08-26T12:31:34.209Z,32.09
2022-08-26T12:32:57.290Z,32.08
2022-08-26T12:34:02.546Z,32.21
2022-08-26T12:36:08.775Z,32.22
2022-08-26T12:37:13.091Z,32.05
2022-08-26T12:38:15.094Z,32.14
2022-08-26T12:39:30.837Z,32.10
2022-08-26T12:40:35.534Z,32.00
2022-08-26T12:41:43.779Z,31.92
2022-08-26T12:42:45.527Z,31.80
2022-08-26T12:43:47.261Z,32.06
2022-08-26T12:45:06.593Z,32.13
2022-08-26T12:46:24.632Z,32.34
2022-08-26T12:47:44.236Z,32.34
2022-08-26T12:48:49.269Z,32.43
2022-08-26T12:50:01.244Z,32.51
2022-08-26T12:51:03.675Z,32.33
2022-08-26T12:52:09.482Z,32.45
2022-08-26T12:53:11.181Z,32.63
2022-08-26T12:54:15.961Z,33.04
2022-08-26T12:55:31.702Z,33.00
2022-08-26T12:56:39.445Z,33.25
2022-08-26T12:57:41.115Z,33.46
2022-08-26T12:58:43.678Z,33.54
2022-08-26T12:59:45.233Z,33.54
2022-08-26T13:00:51.668Z,33.76
2022-08-26T13:01:54.231Z,33.75
2022-08-26T13:02:57.292Z,33.89
2022-08-26T13:03:59.022Z,33.91
2022-08-26T13:05:01.030Z,33.97
2022-08-26T13:06:15.897Z,34.14
2022-08-26T13:07:22.957Z,34.42
2022-08-26T13:08:27.319Z,34.57
2022-08-26T13:09:30.612Z,34.60
2022-08-26T13:10:41.869Z,34.70
2022-08-26T13:11:44.641Z,34.78
2022-08-26T13:12:46.781Z,34.77
2022-08-26T13:13:53.789Z,34.76
2022-08-26T13:14:56.041Z,34.74
2022-08-26T13:15:57.780Z,34.47
2022-08-26T13:16:59.434Z,34.43
2022-08-26T13:18:01.083Z,34.52
2022-08-26T13:19:10.271Z,34.47
2022-08-26T13:20:12.225Z,34.43
2022-08-26T13:21:20.561Z,34.44
2022-08-26T13:22:24.289Z,34.34
2022-08-26T13:23:25.974Z,34.39
2022-08-26T13:24:40.443Z,34.42
2022-08-26T13:25:42.154Z,34.48
2022-08-26T13:26:46.059Z,34.05
2022-08-26T13:27:47.776Z,33.74
2022-08-26T13:29:01.468Z,33.82
2022-08-26T13:30:04.043Z,33.69
2022-08-26T13:31:06.147Z,33.71
2022-08-26T13:32:09.105Z,33.46
2022-08-26T13:33:12.274Z,33.61
2022-08-26T13:34:19.412Z,33.71
2022-08-26T13:35:20.979Z,33.85
2022-08-26T13:36:22.662Z,33.65
2022-08-26T13:37:34.874Z,33.68
2022-08-26T13:38:37.125Z,33.18
2022-08-26T13:39:39.363Z,33.02
2022-08-26T13:40:44.501Z,32.35
2022-08-26T13:41:46.383Z,32.32
2022-08-26T13:42:49.882Z,32.43
2022-08-26T13:43:52.609Z,32.46
2022-08-26T13:44:57.901Z,32.62
2022-08-26T13:46:00.987Z,32.71
2022-08-26T13:47:02.582Z,32.72
2022-08-26T13:48:06.008Z,32.65
2022-08-26T13:49:08.197Z,32.79
2022-08-26T13:50:09.901Z,32.94
2022-08-26T13:51:12.000Z,32.99
2022-08-26T13:52:13.576Z,33.11
2022-08-26T13:53:17.020Z,33.16
2022-08-26T13:54:18.677Z,33.34
2022-08-26T13:55:20.249Z,33.07
2022-08-26T13:56:22.848Z,33.00
2022-08-26T13:57:24.749Z,31.99
2022-08-26T13:58:27.823Z,31.66
2022-08-26T13:59:29.423Z,31.55
2022-08-26T14:00:33.261Z,31.45
2022-08-26T14:01:35.475Z,31.44
2022-08-26T14:02:37.766Z,31.39
2022-08-26T14:03:39.627Z,31.43
2022-08-26T14:04:41.210Z,31.18
2022-08-26T14:05:42.807Z,31.02
2022-08-26T14:06:44.558Z,31.01
2022-08-26T14:07:46.947Z,31.08
2022-08-26T14:08:49.426Z,30.99
2022-08-26T14:09:51.057Z,31.20
2022-08-26T14:10:52.743Z,31.10
2022-08-26T14:11:55.219Z,30.80
2022-08-26T14:12:57.230Z,30.90
2022-08-26T14:13:58.714Z,31.00